createdAt,value
2018-08-11T00:00:29.893Z,1004.62
2018-08-11T00:01:39.748Z,1004.61
2018-08-11T00:02:49.828Z,1004.57
2018-08-11T00:03:59.917Z,1004.61
2018-08-11T00:05:10.007Z,1004.59
2018-08-11T00:06:19.813Z,1004.61
2018-08-11T00:07:29.884Z,1004.6
2018-08-11T00:08:39.953Z,1004.55
2018-08-11T00:09:49.764Z,1004.53
2018-08-11T00:10:59.852Z,1004.51
2018-08-11T00:12:09.696Z,1004.46
2018-08-11T00:13:19.756Z,1004.47
2018-08-11T00:14:29.872Z,1004.47
2018-08-11T00:15:39.950Z,1004.47
2018-08-11T00:16:50.028Z,1004.47
2018-08-11T00:18:00.113Z,1004.47
2018-08-11T00:19:10.206Z,1004.47
2018-08-11T00:20:20.271Z,1004.47
2018-08-11T00:21:30.090Z,1004.46
2018-08-11T00:22:40.164Z,1004.42
2018-08-11T00:23:50.256Z,1004.41
2018-08-11T00:25:00.117Z,1004.41
2018-08-11T00:26:10.190Z,1004.43
2018-08-11T00:27:20.259Z,1004.43
2018-08-11T00:28:30.315Z,1004.43
2018-08-11T00:29:40.121Z,1004.4
2018-08-11T00:30:50.189Z,1004.42
2018-08-11T00:32:00.016Z,1004.43
2018-08-11T00:33:10.083Z,1004.52
2018-08-11T00:34:19.892Z,1004.54
2018-08-11T00:35:29.958Z,1004.59
2018-08-11T00:36:40.047Z,1004.63
2018-08-11T00:37:49.849Z,1004.6
2018-08-11T00:38:59.665Z,1004.58
2018-08-11T00:40:09.767Z,1004.57
2018-08-11T00:41:19.842Z,1004.55
2018-08-11T00:42:29.902Z,1004.46
2018-08-11T00:43:39.978Z,1004.44
2018-08-11T00:44:50.058Z,1004.46
2018-08-11T00:46:00.143Z,1004.43
2018-08-11T00:47:10.220Z,1004.42
2018-08-11T00:48:20.292Z,1004.44
2018-08-11T00:49:30.378Z,1004.45
2018-08-11T00:50:40.891Z,1004.46
2018-08-11T00:51:50.690Z,1004.48
2018-08-11T00:53:00.769Z,1004.49
2018-08-11T00:54:10.837Z,1004.47
2018-08-11T00:55:20.979Z,1004.47
2018-08-11T00:56:31.060Z,1004.4
2018-08-11T00:57:41.122Z,1004.39
2018-08-11T00:58:51.203Z,1004.42
2018-08-11T01:00:01.285Z,1004.42
2018-08-11T01:01:11.356Z,1004.44
2018-08-11T01:02:21.466Z,1004.45
2018-08-11T01:03:31.891Z,1004.49
2018-08-11T01:04:41.703Z,1004.48
2018-08-11T01:05:51.758Z,1004.43
2018-08-11T01:07:01.829Z,1004.43
2018-08-11T01:08:11.376Z,1004.42
2018-08-11T01:09:21.439Z,1004.37
2018-08-11T01:10:31.564Z,1004.39
2018-08-11T01:11:41.660Z,1004.35
2018-08-11T01:12:51.792Z,1004.27
2018-08-11T01:14:01.870Z,1004.3
2018-08-11T01:15:11.676Z,1004.26
2018-08-11T01:16:21.490Z,1004.26
2018-08-11T01:17:31.579Z,1004.27
2018-08-11T01:18:41.653Z,1004.26
2018-08-11T01:19:51.734Z,1004.29
2018-08-11T01:21:01.548Z,1004.25
2018-08-11T01:22:11.368Z,1004.23
2018-08-11T01:23:21.438Z,1004.24
2018-08-11T01:24:31.521Z,1004.25
2018-08-11T01:25:41.066Z,1004.25
2018-08-11T01:26:51.139Z,1004.23
2018-08-11T01:28:01.203Z,1004.21
2018-08-11T01:29:11.273Z,1004.2
2018-08-11T01:30:21.330Z,1004.23
2018-08-11T01:31:31.411Z,1004.26
2018-08-11T01:32:41.489Z,1004.24
2018-08-11T01:33:51.837Z,1004.25
2018-08-11T01:35:01.953Z,1004.18
2018-08-11T01:36:11.770Z,1004.2
2018-08-11T01:37:21.579Z,1004.16
2018-08-11T01:38:31.685Z,1004.14
2018-08-11T01:39:41.770Z,1004.15
2018-08-11T01:40:51.855Z,1004.16
2018-08-11T01:42:01.904Z,1004.15
2018-08-11T01:43:11.989Z,1004.16
2018-08-11T01:44:22.098Z,1004.15
2018-08-11T01:45:32.543Z,1004.11
2018-08-11T01:46:42.353Z,1004.12
2018-08-11T01:47:52.436Z,1004.09
2018-08-11T01:49:02.515Z,1004.11
2018-08-11T01:50:12.592Z,1004.1
2018-08-11T01:51:22.656Z,1004.13
2018-08-11T01:52:32.484Z,1004.1
2018-08-11T01:53:42.300Z,1004.07
2018-08-11T01:54:52.366Z,1004.08
2018-08-11T01:56:01.903Z,1004.08
2018-08-11T01:57:12.004Z,1004.04
2018-08-11T01:58:22.066Z,1004.02
2018-08-11T01:59:32.153Z,1004.02
2018-08-11T02:00:42.232Z,1004.02
2018-08-11T02:01:52.296Z,1004
2018-08-11T02:03:02.360Z,1003.99
2018-08-11T02:04:12.179Z,1004.02
2018-08-11T02:05:22.312Z,1003.96
2018-08-11T02:06:32.122Z,1003.96
2018-08-11T02:07:42.202Z,1004
2018-08-11T02:08:52.271Z,1004.04
2018-08-11T02:10:02.089Z,1004.04
2018-08-11T02:11:12.225Z,1004.02
2018-08-11T02:12:22.516Z,1004.04
2018-08-11T02:13:32.312Z,1003.97
2018-08-11T02:14:42.126Z,1003.95
2018-08-11T02:15:51.945Z,1003.98
2018-08-11T02:17:02.036Z,1003.98
2018-08-11T02:18:12.110Z,1003.97
2018-08-11T02:19:22.183Z,1003.98
2018-08-11T02:20:32.234Z,1003.97
2018-08-11T02:21:42.314Z,1004.01
2018-08-11T02:22:52.398Z,1003.99
2018-08-11T02:24:02.478Z,1004.04
2018-08-11T02:25:12.295Z,1003.97
2018-08-11T02:26:22.360Z,1004.01
2018-08-11T02:27:32.436Z,1004.02
2018-08-11T02:28:42.280Z,1004.01
2018-08-11T02:29:52.356Z,1004.08
2018-08-11T02:31:02.450Z,1004.05
2018-08-11T02:32:12.526Z,1004.09
2018-08-11T02:33:22.595Z,1004.07
2018-08-11T02:34:32.464Z,1004.06
2018-08-11T02:35:42.568Z,1004.04
2018-08-11T02:36:52.369Z,1004.02
2018-08-11T02:38:02.465Z,1004.04
2018-08-11T02:39:12.278Z,1004.01
2018-08-11T02:40:22.382Z,1004.04
2018-08-11T02:41:32.460Z,1004.04
2018-08-11T02:42:42.260Z,1003.97
2018-08-11T02:43:52.347Z,1003.96
2018-08-11T02:45:02.418Z,1003.97
2018-08-11T02:46:12.242Z,1003.92
2018-08-11T02:47:22.313Z,1003.95
2018-08-11T02:48:32.386Z,1003.88
2018-08-11T02:49:42.192Z,1003.94
2018-08-11T02:50:52.040Z,1003.95
2018-08-11T02:52:02.134Z,1003.97
2018-08-11T02:53:12.216Z,1003.97
2018-08-11T02:54:21.764Z,1004.03
2018-08-11T02:55:31.860Z,1004
2018-08-11T02:56:41.930Z,1004
2018-08-11T02:57:51.804Z,1004.03
2018-08-11T02:59:01.910Z,1004.03
2018-08-11T03:00:11.729Z,1004.06
2018-08-11T03:01:21.801Z,1003.97
2018-08-11T03:02:31.948Z,1003.99
2018-08-11T03:34:47.677Z,1003.8
2018-08-11T03:35:57.477Z,1003.8
2018-08-11T03:37:07.552Z,1003.82
2018-08-11T03:38:17.622Z,1003.83
2018-08-11T03:39:27.669Z,1003.84
2018-08-11T03:40:37.490Z,1003.84
2018-08-11T03:41:47.550Z,1003.82
2018-08-11T03:42:57.603Z,1003.87
2018-08-11T03:44:07.412Z,1003.86
2018-08-11T03:45:17.478Z,1003.88
2018-08-11T03:46:27.531Z,1003.86
2018-08-11T03:47:37.608Z,1003.96
2018-08-11T03:48:47.419Z,1003.94
2018-08-11T03:49:57.219Z,1003.94
2018-08-11T03:51:07.319Z,1003.96
2018-08-11T03:52:17.437Z,1003.95
2018-08-11T03:53:27.723Z,1003.95
2018-08-11T03:54:37.538Z,1003.95
2018-08-11T03:55:47.624Z,1003.93
2018-08-11T03:56:57.686Z,1003.96
2018-08-11T03:58:07.748Z,1003.99
2018-08-11T03:59:17.548Z,1003.98
2018-08-11T04:00:27.647Z,1004.04
2018-08-11T04:01:37.482Z,1004.05
2018-08-11T04:02:47.284Z,1004.05
2018-08-11T04:03:57.365Z,1004.09
2018-08-11T04:05:07.429Z,1004.13
2018-08-11T04:06:17.245Z,1004.05
2018-08-11T04:07:27.576Z,1004.1
2018-08-11T04:08:37.647Z,1004.07
2018-08-11T04:09:47.495Z,1004.14
2018-08-11T04:10:57.565Z,1004.15
2018-08-11T04:12:07.632Z,1004.17
2018-08-11T04:13:17.710Z,1004.15
2018-08-11T04:14:27.771Z,1004.16
2018-08-11T04:15:37.824Z,1004.19
2018-08-11T04:16:47.896Z,1004.18
2018-08-11T04:17:57.974Z,1004.15
2018-08-11T04:19:08.058Z,1004.1
2018-08-11T04:20:18.119Z,1004.11
2018-08-11T04:21:28.200Z,1004.11
2018-08-11T04:22:38.264Z,1004.09
2018-08-11T04:23:48.414Z,1004.12
2018-08-11T04:24:58.534Z,1004.08
2018-08-11T04:26:08.607Z,1004.07
2018-08-11T04:27:18.455Z,1004.07
2018-08-11T04:28:28.266Z,1004.11
2018-08-11T04:29:38.319Z,1004.09
2018-08-11T04:30:48.169Z,1004.13
2018-08-11T04:31:58.247Z,1004.12
2018-08-11T04:33:08.381Z,1004.13
2018-08-11T04:34:17.680Z,1004.11
2018-08-11T04:35:27.482Z,1004.13
2018-08-11T04:36:37.154Z,1004.1
2018-08-11T04:37:47.252Z,1004.15
2018-08-11T04:38:57.078Z,1004.16
2018-08-11T04:40:07.155Z,1004.09
2018-08-11T04:41:16.961Z,1004.1
2018-08-11T04:42:26.785Z,1004.1
2018-08-11T04:43:36.864Z,1004.11
2018-08-11T04:44:46.686Z,1004.13
2018-08-11T04:45:56.505Z,1004.07
2018-08-11T04:47:06.575Z,1004.09
2018-08-11T04:48:16.390Z,1004.08
2018-08-11T04:49:26.447Z,1004.08
2018-08-11T04:50:36.520Z,1004.08
2018-08-11T04:51:46.326Z,1004.09
2018-08-11T04:52:56.413Z,1004.06
2018-08-11T04:54:06.213Z,1004.05
2018-08-11T04:55:16.035Z,1004.07
2018-08-11T04:56:26.115Z,1004.04
2018-08-11T04:57:36.186Z,1004.04
2018-08-11T04:58:46.263Z,1004.1
2018-08-11T04:59:56.323Z,1004.09
2018-08-11T05:01:06.399Z,1004.1
2018-08-11T05:02:16.476Z,1004.13
2018-08-11T05:03:26.546Z,1004.13
2018-08-11T05:04:36.619Z,1004.17
2018-08-11T05:05:46.710Z,1004.2
2018-08-11T05:06:56.788Z,1004.25
2018-08-11T05:08:06.606Z,1004.28
2018-08-11T05:09:16.679Z,1004.31
2018-08-11T05:10:26.750Z,1004.33
2018-08-11T05:11:36.830Z,1004.32
2018-08-11T05:12:46.656Z,1004.32
2018-08-11T05:13:56.729Z,1004.34
2018-08-11T05:15:06.541Z,1004.35
2018-08-11T05:16:16.617Z,1004.4
2018-08-11T05:17:26.416Z,1004.4
2018-08-11T05:18:36.480Z,1004.44
2018-08-11T05:19:46.606Z,1004.44
2018-08-11T05:20:56.655Z,1004.48
2018-08-11T05:22:06.744Z,1004.48
2018-08-11T05:23:16.831Z,1004.47
2018-08-11T05:24:26.640Z,1004.52
2018-08-11T05:25:36.450Z,1004.54
2018-08-11T05:26:46.267Z,1004.55
2018-08-11T05:27:56.122Z,1004.57
2018-08-11T05:29:06.216Z,1004.59
2018-08-11T05:30:16.042Z,1004.64
2018-08-11T05:31:25.887Z,1004.63
2018-08-11T05:32:35.964Z,1004.65
2018-08-11T05:33:45.783Z,1004.66
2018-08-11T05:34:55.599Z,1004.66
2018-08-11T05:36:05.686Z,1004.69
2018-08-11T05:37:15.759Z,1004.68
2018-08-11T05:38:25.820Z,1004.78
2018-08-11T05:39:35.892Z,1004.71
2018-08-11T05:40:45.440Z,1004.75
2018-08-11T05:41:55.528Z,1004.78
2018-08-11T05:43:05.873Z,1004.76
2018-08-11T05:44:15.677Z,1004.77
2018-08-11T05:45:25.757Z,1004.83
2018-08-11T05:46:35.835Z,1004.77
2018-08-11T05:47:45.919Z,1004.84
2018-08-11T05:48:56.018Z,1004.73
2018-08-11T05:50:06.085Z,1004.77
2018-08-11T05:51:15.903Z,1004.76
2018-08-11T05:52:25.985Z,1004.77
2018-08-11T05:53:36.061Z,1004.76
2018-08-11T05:54:46.130Z,1004.75
2018-08-11T05:55:55.946Z,1004.79
2018-08-11T05:57:05.999Z,1004.77
2018-08-11T05:58:16.089Z,1004.77
2018-08-11T05:59:26.155Z,1004.73
2018-08-11T06:00:36.223Z,1004.72
2018-08-11T06:01:46.286Z,1004.74
2018-08-11T06:02:56.353Z,1004.74
2018-08-11T06:04:06.546Z,1004.76
2018-08-11T06:05:16.388Z,1004.74
2018-08-11T06:06:26.251Z,1004.79
2018-08-11T06:07:36.321Z,1004.8
2018-08-11T06:08:46.121Z,1004.78
2018-08-11T06:09:55.931Z,1004.77
2018-08-11T06:11:06.006Z,1004.74
2018-08-11T06:12:15.813Z,1004.77
2018-08-11T06:13:25.391Z,1004.78
2018-08-11T06:14:35.460Z,1004.81
2018-08-11T06:15:45.510Z,1004.82
2018-08-11T06:16:55.317Z,1004.83
2018-08-11T06:18:05.415Z,1004.84
2018-08-11T06:19:15.497Z,1004.82
2018-08-11T06:20:25.319Z,1004.84
2018-08-11T06:21:35.397Z,1004.87
2018-08-11T06:22:45.465Z,1004.84
2018-08-11T06:23:55.290Z,1004.81
2018-08-11T06:25:05.366Z,1004.81
2018-08-11T06:26:15.477Z,1004.81
2018-08-11T06:27:25.281Z,1004.84
2018-08-11T06:28:35.357Z,1004.85
2018-08-11T06:29:45.188Z,1004.87
2018-08-11T06:30:54.472Z,1004.87
2018-08-11T06:32:04.553Z,1004.82
2018-08-11T06:33:15.059Z,1004.82
2018-08-11T06:34:25.132Z,1004.81
2018-08-11T06:35:35.259Z,1004.83
2018-08-11T06:36:45.422Z,1004.84
2018-08-11T06:37:55.495Z,1004.83
2018-08-11T06:39:05.569Z,1004.87
2018-08-11T06:40:15.372Z,1004.87
2018-08-11T06:41:25.265Z,1004.87
2018-08-11T06:42:35.331Z,1004.84
2018-08-11T06:43:45.420Z,1004.84
2018-08-11T06:44:55.241Z,1004.79
2018-08-11T06:46:05.057Z,1004.8
2018-08-11T06:47:15.190Z,1004.78
2018-08-11T06:48:25.003Z,1004.82
2018-08-11T06:49:34.290Z,1004.81
2018-08-11T06:50:44.106Z,1004.82
2018-08-11T06:51:54.187Z,1004.85
2018-08-11T06:53:04.282Z,1004.87
2018-08-11T06:54:14.365Z,1004.94
2018-08-11T06:55:24.459Z,1004.93
2018-08-11T06:56:34.699Z,1004.92
2018-08-11T06:57:44.790Z,1004.89
2018-08-11T06:58:54.882Z,1004.92
2018-08-11T07:00:04.996Z,1004.86
2018-08-11T07:01:14.842Z,1004.81
2018-08-11T07:02:24.667Z,1004.83
2018-08-11T07:03:34.736Z,1004.87
2018-08-11T07:04:44.810Z,1004.77
2018-08-11T07:05:54.911Z,1004.81
2018-08-11T07:07:05.153Z,1004.79
2018-08-11T07:08:15.086Z,1004.86
2018-08-11T07:09:25.156Z,1004.79
2018-08-11T07:10:34.967Z,1004.78
2018-08-11T07:11:45.043Z,1004.8
2018-08-11T07:12:54.856Z,1004.79
2018-08-11T07:14:04.935Z,1004.84
2018-08-11T07:15:15.058Z,1004.83
2018-08-11T07:16:25.655Z,1004.79
2018-08-11T07:17:35.247Z,1004.86
2018-08-11T07:18:45.336Z,1004.91
2018-08-11T07:19:55.426Z,1004.85
2018-08-11T07:21:05.247Z,1004.84
2018-08-11T07:22:15.510Z,1004.81
2018-08-11T07:23:25.618Z,1004.84
2018-08-11T07:24:35.695Z,1004.81
2018-08-11T07:25:45.515Z,1004.84
2018-08-11T07:26:55.317Z,1004.79
2018-08-11T07:28:05.441Z,1004.78
2018-08-11T07:29:15.261Z,1004.84
2018-08-11T07:30:25.149Z,1004.83
2018-08-11T07:31:35.236Z,1004.84
2018-08-11T07:32:45.331Z,1004.82
2018-08-11T07:33:55.427Z,1004.84
2018-08-11T07:35:05.254Z,1004.89
2018-08-11T07:36:15.114Z,1004.85
2018-08-11T07:37:25.430Z,1004.88
2018-08-11T07:38:36.574Z,1004.86
2018-08-11T07:39:46.740Z,1004.92
2018-08-11T07:40:56.703Z,1004.94
2018-08-11T07:42:06.556Z,1004.87
2018-08-11T07:43:16.695Z,1004.91
2018-08-11T07:44:27.174Z,1004.88
2018-08-11T07:45:37.040Z,1004.86
2018-08-11T07:46:47.133Z,1004.88
2018-08-11T07:47:56.941Z,1004.89
2018-08-11T07:49:06.753Z,1004.96
2018-08-11T07:50:16.871Z,1004.92
2018-08-11T07:51:27.342Z,1004.94
2018-08-11T07:52:37.433Z,1004.97
2018-08-11T07:53:47.502Z,1004.91
2018-08-11T07:54:57.590Z,1004.88
2018-08-11T07:56:07.408Z,1004.89
2018-08-11T07:57:17.475Z,1004.86
2018-08-11T07:58:27.557Z,1004.91
2018-08-11T07:59:37.636Z,1004.96
2018-08-11T08:00:47.708Z,1004.93
2018-08-11T08:01:57.788Z,1004.96
2018-08-11T08:03:07.669Z,1004.94
2018-08-11T08:04:17.484Z,1004.91
2018-08-11T08:05:27.575Z,1004.9
2018-08-11T08:06:37.408Z,1004.93
2018-08-11T08:07:47.484Z,1004.94
2018-08-11T08:08:57.658Z,1004.93
2018-08-11T08:10:07.234Z,1005.03
2018-08-11T08:11:17.301Z,1004.98
2018-08-11T08:12:27.374Z,1004.98
2018-08-11T08:13:37.479Z,1004.98
2018-08-11T08:14:48.016Z,1005.06
2018-08-11T08:15:58.124Z,1005.01
2018-08-11T08:17:07.956Z,1005.04
2018-08-11T08:18:18.044Z,1005.01
2018-08-11T08:19:28.125Z,1004.98
2018-08-11T08:20:38.200Z,1004.96
2018-08-11T08:21:48.275Z,1004.93
2018-08-11T08:22:58.365Z,1004.97
2018-08-11T08:24:08.203Z,1004.94
2018-08-11T08:25:18.291Z,1004.98
2018-08-11T08:26:28.529Z,1005.01
2018-08-11T08:27:39.907Z,1005
2018-08-11T08:28:49.984Z,1004.99
2018-08-11T08:30:00.083Z,1004.95
2018-08-11T08:31:10.188Z,1004.94
2018-08-11T08:32:20.271Z,1005.01
2018-08-11T08:33:30.373Z,1004.95
2018-08-11T08:34:40.467Z,1004.91
2018-08-11T08:35:50.301Z,1004.93
2018-08-11T08:37:00.382Z,1004.9
2018-08-11T08:38:10.491Z,1004.86
2018-08-11T08:39:20.314Z,1004.89
2018-08-11T08:40:30.401Z,1004.89
2018-08-11T08:41:40.478Z,1004.92
2018-08-11T08:42:50.812Z,1004.91
2018-08-11T08:44:00.890Z,1004.89
2018-08-11T08:45:10.725Z,1004.92
2018-08-11T08:46:20.819Z,1004.89
2018-08-11T08:47:30.944Z,1004.88
2018-08-11T08:48:41.348Z,1004.86
2018-08-11T08:49:51.422Z,1004.84
2018-08-11T08:51:01.276Z,1004.84
2018-08-11T08:52:11.144Z,1004.85
2018-08-11T08:53:21.256Z,1004.79
2018-08-11T08:54:31.687Z,1004.77
2018-08-11T08:55:41.758Z,1004.73
2018-08-11T08:56:51.876Z,1004.68
2018-08-11T08:58:01.963Z,1004.69
2018-08-11T08:59:11.924Z,1004.7
2018-08-11T09:00:21.805Z,1004.72
2018-08-11T09:01:31.645Z,1004.68
2018-08-11T09:02:41.724Z,1004.72
2018-08-11T09:03:51.804Z,1004.69
2018-08-11T09:05:01.901Z,1004.72
2018-08-11T09:06:12.020Z,1004.7
2018-08-11T09:07:22.111Z,1004.75
2018-08-11T09:08:32.207Z,1004.74
2018-08-11T09:09:42.308Z,1004.7
2018-08-11T09:10:52.170Z,1004.76
2018-08-11T09:12:02.296Z,1004.7
2018-08-11T09:13:12.791Z,1004.65
2018-08-11T09:14:22.615Z,1004.7
2018-08-11T09:15:32.726Z,1004.64
2018-08-11T09:16:42.555Z,1004.57
2018-08-11T09:17:52.625Z,1004.58
2018-08-11T09:19:02.454Z,1004.57
2018-08-11T09:20:12.536Z,1004.6
2018-08-11T09:21:22.401Z,1004.61
2018-08-11T09:22:32.490Z,1004.61
2018-08-11T09:23:42.577Z,1004.57
2018-08-11T09:24:52.670Z,1004.59
2018-08-11T09:26:02.755Z,1004.6
2018-08-11T09:27:12.829Z,1004.59
2018-08-11T09:28:22.910Z,1004.52
2018-08-11T09:29:32.998Z,1004.53
2018-08-11T09:30:42.554Z,1004.55
2018-08-11T09:31:52.361Z,1004.56
2018-08-11T09:33:02.448Z,1004.64
2018-08-11T09:34:12.536Z,1004.53
2018-08-11T09:35:22.636Z,1004.58
2018-08-11T09:36:32.185Z,1004.57
2018-08-11T09:37:42.014Z,1004.57
2018-08-11T09:38:52.112Z,1004.44
2018-08-11T09:40:01.953Z,1004.43
2018-08-11T09:41:12.050Z,1004.44
2018-08-11T09:42:21.887Z,1004.43
2018-08-11T09:43:31.974Z,1004.41
2018-08-11T09:44:42.076Z,1004.4
2018-08-11T09:45:52.172Z,1004.41
2018-08-11T09:47:02.102Z,1004.45
2018-08-11T09:48:12.250Z,1004.4
2018-08-11T09:49:22.347Z,1004.41
2018-08-11T09:50:32.520Z,1004.45
2018-08-11T09:51:42.354Z,1004.39
2018-08-11T09:52:52.453Z,1004.42
2018-08-11T09:54:02.523Z,1004.41
2018-08-11T09:55:12.340Z,1004.38
2018-08-11T09:56:22.186Z,1004.35
2018-08-11T09:57:32.275Z,1004.4
2018-08-11T09:58:42.405Z,1004.39
2018-08-11T09:59:53.234Z,1004.43
2018-08-11T10:01:03.307Z,1004.36
2018-08-11T10:02:13.422Z,1004.39
2018-08-11T10:03:23.506Z,1004.33
2018-08-11T10:04:33.579Z,1004.35
2018-08-11T10:05:43.686Z,1004.34
2018-08-11T10:06:53.502Z,1004.34
2018-08-11T10:08:03.610Z,1004.36
2018-08-11T10:09:13.717Z,1004.33
2018-08-11T10:10:23.806Z,1004.33
2018-08-11T10:11:34.168Z,1004.35
2018-08-11T10:12:44.244Z,1004.31
2018-08-11T10:13:54.327Z,1004.31
2018-08-11T10:15:04.406Z,1004.31
2018-08-11T10:16:14.231Z,1004.34
2018-08-11T10:17:24.065Z,1004.36
2018-08-11T10:18:34.217Z,1004.35
2018-08-11T10:19:44.821Z,1004.36
2018-08-11T10:20:54.653Z,1004.44
2018-08-11T10:22:04.769Z,1004.42
2018-08-11T10:23:14.879Z,1004.35
2018-08-11T10:24:24.949Z,1004.32
2018-08-11T10:25:35.029Z,1004.34
2018-08-11T10:26:45.109Z,1004.3
2018-08-11T10:27:55.196Z,1004.29
2018-08-11T10:29:05.296Z,1004.29
2018-08-11T10:30:15.383Z,1004.29
2018-08-11T10:31:25.520Z,1004.29
2018-08-11T10:32:35.102Z,1004.31
2018-08-11T10:33:45.194Z,1004.34
2018-08-11T10:34:55.279Z,1004.33
2018-08-11T10:36:05.372Z,1004.28
2018-08-11T10:37:15.228Z,1004.2
2018-08-11T10:38:25.331Z,1004.22
2018-08-11T10:39:35.419Z,1004.24
2018-08-11T10:40:45.628Z,1004.28
2018-08-11T10:41:55.731Z,1004.25
2018-08-11T10:43:05.888Z,1004.28
2018-08-11T10:44:15.981Z,1004.27
2018-08-11T10:45:26.100Z,1004.22
2018-08-11T10:46:35.958Z,1004.23
2018-08-11T10:47:46.058Z,1004.18
2018-08-11T10:48:56.128Z,1004.15
2018-08-11T10:50:05.966Z,1004.11
2018-08-11T10:51:16.065Z,1004.15
2018-08-11T10:52:26.163Z,1004.14
2018-08-11T10:53:36.278Z,1004.12
2018-08-11T10:54:46.155Z,1004.09
2018-08-11T10:55:56.295Z,1004.04
2018-08-11T10:57:06.465Z,1004.08
2018-08-11T10:58:16.549Z,1004.06
2018-08-11T10:59:26.641Z,1004.01
2018-08-11T11:00:36.747Z,1004
2018-08-11T11:01:46.816Z,1003.99
2018-08-11T11:02:56.920Z,1004.07
2018-08-11T11:04:06.993Z,1004.08
2018-08-11T11:05:17.097Z,1004.03
2018-08-11T11:06:27.226Z,1004.03
2018-08-11T11:07:37.071Z,1004.06
2018-08-11T11:08:46.890Z,1004.09
2018-08-11T11:09:56.988Z,1004.05
2018-08-11T11:11:06.824Z,1004.04
2018-08-11T11:12:16.902Z,1004.02
2018-08-11T11:13:27.006Z,1004.06
2018-08-11T11:14:37.108Z,1004.07
2018-08-11T11:15:47.192Z,1004.07
2018-08-11T11:16:57.016Z,1003.93
2018-08-11T11:18:06.576Z,1003.92
2018-08-11T11:19:15.876Z,1003.92
2018-08-11T11:20:25.965Z,1003.9
2018-08-11T11:21:35.785Z,1003.85
2018-08-11T11:22:45.615Z,1003.84
2018-08-11T11:23:55.701Z,1003.88
2018-08-11T11:25:05.780Z,1003.91
2018-08-11T11:26:15.864Z,1003.83
2018-08-11T11:27:25.948Z,1003.86
2018-08-11T11:28:36.020Z,1003.89
2018-08-11T11:29:46.095Z,1003.81
2018-08-11T11:30:56.219Z,1003.81
2018-08-11T11:32:06.356Z,1003.8
2018-08-11T11:33:16.186Z,1003.76
2018-08-11T11:34:26.247Z,1003.71
2018-08-11T11:35:36.329Z,1003.77
2018-08-11T11:36:46.411Z,1003.77
2018-08-11T11:37:56.219Z,1003.7
2018-08-11T11:39:06.325Z,1003.68
2018-08-11T11:40:16.452Z,1003.68
2018-08-11T11:41:26.541Z,1003.65
2018-08-11T11:42:36.613Z,1003.61
2018-08-11T11:43:46.764Z,1003.62
2018-08-11T11:44:56.856Z,1003.6
2018-08-11T11:46:06.934Z,1003.64
2018-08-11T11:47:17.044Z,1003.62
2018-08-11T11:48:27.123Z,1003.62
2018-08-11T11:49:37.219Z,1003.55
2018-08-11T11:50:47.059Z,1003.6
2018-08-11T11:51:57.134Z,1003.56
2018-08-11T11:53:06.956Z,1003.54
2018-08-11T11:54:16.780Z,1003.57
2018-08-11T11:55:26.883Z,1003.54
2018-08-11T11:56:36.958Z,1003.53
2018-08-11T11:57:47.049Z,1003.53
2018-08-11T11:58:57.145Z,1003.53
2018-08-11T12:00:07.247Z,1003.43
2018-08-11T12:01:17.340Z,1003.47
2018-08-11T12:02:27.431Z,1003.51
2018-08-11T12:03:37.501Z,1003.51
2018-08-11T12:04:47.588Z,1003.51
2018-08-11T12:05:57.810Z,1003.53
2018-08-11T12:07:07.923Z,1003.54
2018-08-11T12:08:18.014Z,1003.54
2018-08-11T12:09:27.837Z,1003.49
2018-08-11T12:10:37.925Z,1003.45
2018-08-11T12:11:48.025Z,1003.45
2018-08-11T12:12:58.088Z,1003.37
2018-08-11T12:14:08.185Z,1003.43
2018-08-11T12:15:18.259Z,1003.4
2018-08-11T12:16:28.341Z,1003.43
2018-08-11T12:17:38.427Z,1003.4
2018-08-11T12:18:48.500Z,1003.35
2018-08-11T12:19:58.364Z,1003.35
2018-08-11T12:21:08.695Z,1003.32
2018-08-11T12:22:18.651Z,1003.29
2018-08-11T12:23:28.227Z,1003.32
2018-08-11T12:24:38.053Z,1003.33
2018-08-11T12:25:47.882Z,1003.31
2018-08-11T12:26:57.726Z,1003.28
2018-08-11T12:28:07.280Z,1003.25
2018-08-11T12:29:17.379Z,1003.26
2018-08-11T12:30:27.485Z,1003.23
2018-08-11T12:31:37.602Z,1003.31
2018-08-11T12:32:47.701Z,1003.29
2018-08-11T12:33:57.517Z,1003.24
2018-08-11T12:35:07.611Z,1003.28
2018-08-11T12:36:17.719Z,1003.22
2018-08-11T12:37:27.604Z,1003.14
2018-08-11T12:38:37.706Z,1003.2
2018-08-11T12:39:47.515Z,1003.22
2018-08-11T12:40:57.622Z,1003.18
2018-08-11T12:42:07.714Z,1003.2
2018-08-11T12:43:17.540Z,1003.2
2018-08-11T12:44:27.626Z,1003.19
2018-08-11T12:45:37.778Z,1003.2
2018-08-11T12:46:47.973Z,1003.09
2018-08-11T12:47:57.793Z,1003.1
2018-08-11T12:49:07.934Z,1003.15
2018-08-11T12:50:18.047Z,1003.05
2018-08-11T12:51:27.628Z,1003.04
2018-08-11T12:52:37.462Z,1003.06
2018-08-11T12:53:47.556Z,1003.12
2018-08-11T12:54:57.648Z,1003.08
2018-08-11T12:56:07.727Z,1003.06
2018-08-11T12:57:17.814Z,1003.08
2018-08-11T12:58:27.638Z,1003.11
2018-08-11T12:59:37.725Z,1003.09
2018-08-11T13:00:47.865Z,1003.11
2018-08-11T13:01:57.959Z,1003.08
2018-08-11T13:03:08.076Z,1003.05
2018-08-11T13:04:18.183Z,1003.08
2018-08-11T13:05:28.283Z,1003.09
2018-08-11T13:06:38.350Z,1003.07
2018-08-11T13:07:48.298Z,1003.03
2018-08-11T13:08:58.140Z,1002.93
2018-08-11T13:10:08.247Z,1002.97
2018-08-11T13:11:18.314Z,1002.97
2018-08-11T13:12:28.389Z,1002.91
2018-08-11T13:13:38.468Z,1002.89
2018-08-11T13:14:48.291Z,1002.93
2018-08-11T13:15:58.388Z,1002.94
2018-08-11T13:17:08.477Z,1002.85
2018-08-11T13:18:18.581Z,1002.86
2018-08-11T13:19:28.664Z,1002.84
2018-08-11T13:20:38.801Z,1002.8
2018-08-11T13:21:49.388Z,1002.84
2018-08-11T13:22:59.238Z,1002.84
2018-08-11T13:24:09.308Z,1002.84
2018-08-11T13:25:19.405Z,1002.84
2018-08-11T13:26:29.494Z,1002.8
2018-08-11T13:27:39.589Z,1002.82
2018-08-11T13:28:49.689Z,1002.79
2018-08-11T13:29:59.780Z,1002.78
2018-08-11T13:31:09.608Z,1002.76
2018-08-11T13:32:19.431Z,1002.68
2018-08-11T13:33:29.521Z,1002.69
2018-08-11T13:34:39.331Z,1002.74
2018-08-11T13:35:49.414Z,1002.75
2018-08-11T13:36:59.505Z,1002.68
2018-08-11T13:38:09.582Z,1002.68
2018-08-11T13:39:19.680Z,1002.65
2018-08-11T13:40:29.758Z,1002.62
2018-08-11T13:41:39.639Z,1002.6
2018-08-11T13:42:49.752Z,1002.64
2018-08-11T13:43:59.853Z,1002.6
2018-08-11T13:45:09.940Z,1002.61
2018-08-11T13:46:19.764Z,1002.59
2018-08-11T13:47:29.610Z,1002.51
2018-08-11T13:48:39.703Z,1002.53
2018-08-11T13:49:49.888Z,1002.46
2018-08-11T13:51:00.252Z,1002.46
2018-08-11T13:52:09.819Z,1002.41
2018-08-11T13:53:19.922Z,1002.41
2018-08-11T13:54:30.050Z,1002.39
2018-08-11T13:55:40.160Z,1002.36
2018-08-11T13:56:50.241Z,1002.34
2018-08-11T13:58:00.323Z,1002.4
2018-08-11T13:59:10.180Z,1002.39
2018-08-11T14:00:20.275Z,1002.38
2018-08-11T14:01:30.464Z,1002.39
2018-08-11T14:02:40.798Z,1002.33
2018-08-11T14:03:50.621Z,1002.35
2018-08-11T14:05:00.707Z,1002.32
2018-08-11T14:06:10.816Z,1002.26
2018-08-11T14:07:20.918Z,1002.3
2018-08-11T14:08:30.903Z,1002.26
2018-08-11T14:09:40.988Z,1002.2
2018-08-11T14:10:51.078Z,1002.3
2018-08-11T14:12:01.186Z,1002.23
2018-08-11T14:13:11.283Z,1002.26
2018-08-11T14:14:21.100Z,1002.22
2018-08-11T14:15:31.191Z,1002.22
2018-08-11T14:16:41.057Z,1002.14
2018-08-11T14:17:51.139Z,1002.17
2018-08-11T14:19:01.211Z,1002.15
2018-08-11T14:20:11.350Z,1002.16
2018-08-11T14:21:21.618Z,1002.14
2018-08-11T14:22:31.440Z,1002.06
2018-08-11T14:23:40.982Z,1002.11
2018-08-11T14:24:51.102Z,1002.11
2018-08-11T14:26:01.199Z,1002.07
2018-08-11T14:27:11.304Z,1002.09
2018-08-11T14:28:21.446Z,1002.09
2018-08-11T14:29:31.542Z,1002.11
2018-08-11T14:30:41.634Z,1002.07
2018-08-11T14:31:51.769Z,1002.05
2018-08-11T14:33:01.859Z,1002.02
2018-08-11T14:34:11.953Z,1002.06
2018-08-11T14:35:22.046Z,1002.05
2018-08-11T14:36:31.888Z,1002.07
2018-08-11T14:37:41.976Z,1002.07
2018-08-11T14:38:52.105Z,1002.1
2018-08-11T14:40:02.201Z,1002.08
2018-08-11T14:41:12.300Z,1002.06